Terminal Aerodrome Forecast
Issued by NWS

Home | Current Version | Previous Version | Text Only | Print | Product List | Glossary On
Versions: 1 2 3 4 5 6 7 8 9 10 11 12 13 14
000
FTUS43 KSGF 170500
TAFJLN
TAF
KJLN 170520Z 1706/1806 17010KT P6SM SCT250
     FM171400 VRB05KT P6SM FEW050 OVC150
     FM171800 36007KT P6SM BKN050 OVC120
     FM172300 03004KT P6SM OVC080=

USA.gov is the U.S. government's official web portal to all federal, state and local government web resources and services.